Time;durP1;ratioP1;P1;durP2;ratioP2;P2;SDS_P1;SDS_P2;PMS_P1;PMS_P2;Temp;Humidity;BMP_temperature;BMP_pressure;BME280_temperature;BME280_humidity;BME280_pressure;Samples;Min_cycle;Max_cycle;Signal;HPM_P1;HPM_P2
2022/08/18 00:02:00;;;;;;;3.55;2.75;;;22.00;96.50;;;;;;5094109;28;20032;-82
2022/08/18 00:04:26;;;;;;;4.05;2.83;;;22.00;96.50;;;;;;5078665;28;20035;-81
2022/08/18 00:06:51;;;;;;;3.42;3.03;;;21.90;96.10;;;;;;5094914;28;20024;-77
2022/08/18 00:09:17;;;;;;;3.50;3.03;;;21.90;96.40;;;;;;5096178;28;20024;-78
2022/08/18 00:11:43;;;;;;;5.35;2.80;;;21.90;96.50;;;;;;5077709;28;20068;-79
2022/08/18 00:14:16;;;;;;;3.08;2.65;;;21.90;96.50;;;;;;5089677;28;20454;-78
2022/08/18 00:16:42;;;;;;;3.10;2.50;;;21.90;96.60;;;;;;5066714;28;20064;-79
2022/08/18 00:19:07;;;;;;;3.15;2.50;;;21.80;96.70;;;;;;5083148;28;20175;-79
2022/08/18 00:21:33;;;;;;;3.13;2.80;;;21.70;97.00;;;;;;5058513;28;20119;-81
2022/08/18 00:23:59;;;;;;;3.50;3.00;;;21.60;97.20;;;;;;5057773;28;20025;-81
2022/08/18 00:26:25;;;;;;;4.40;3.10;;;21.50;97.50;;;;;;5075758;28;20039;-81
2022/08/18 00:28:50;;;;;;;5.03;2.72;;;21.40;97.70;;;;;;5057569;28;20027;-82
2022/08/18 00:31:16;;;;;;;3.78;3.15;;;21.40;98.00;;;;;;5073811;28;20032;-81
2022/08/18 00:33:42;;;;;;;2.78;2.53;;;21.40;98.30;;;;;;5074762;28;20025;-81
2022/08/18 00:36:10;;;;;;;4.70;2.67;;;21.40;98.40;;;;;;5077503;28;20024;-81
2022/08/18 00:38:36;;;;;;;3.70;2.92;;;21.30;98.70;;;;;;5096069;28;20098;-80
2022/08/18 00:41:01;;;;;;;4.00;2.78;;;21.20;99.00;;;;;;5065740;28;20436;-81
2022/08/18 00:43:31;;;;;;;4.28;2.75;;;21.20;99.20;;;;;;5057790;28;20031;-79
2022/08/18 00:45:57;;;;;;;4.88;2.67;;;21.30;99.40;;;;;;5059699;28;20052;-80
2022/08/18 00:48:23;;;;;;;3.55;2.95;;;21.20;99.50;;;;;;5094639;28;20055;-80
2022/08/18 00:50:50;;;;;;;3.92;2.90;;;21.20;99.70;;;;;;5094410;28;20569;-82
2022/08/18 00:53:19;;;;;;;4.72;3.33;;;21.10;99.80;;;;;;5077933;28;20110;-80
2022/08/18 00:55:47;;;;;;;5.10;2.92;;;21.10;99.90;;;;;;5076912;28;20036;-79
2022/08/18 00:58:26;;;;;;;3.85;3.03;;;21.10;99.90;;;;;;5057367;28;20021;-79
2022/08/18 01:00:52;;;;;;;3.30;2.78;;;21.00;99.90;;;;;;5057080;28;20031;-80
2022/08/18 01:03:20;;;;;;;4.13;3.00;;;21.00;99.90;;;;;;5074606;28;20055;-80
2022/08/18 01:06:02;;;;;;;4.38;3.10;;;21.00;99.90;;;;;;5091367;28;20027;-82
2022/08/18 01:08:28;;;;;;;4.22;2.85;;;21.00;99.90;;;;;;5074286;28;20024;-80
2022/08/18 01:10:54;;;;;;;3.60;2.95;;;20.90;99.90;;;;;;5066291;28;20040;-81
2022/08/18 01:13:26;;;;;;;3.20;2.90;;;20.90;99.90;;;;;;5063198;28;20051;-80
2022/08/18 01:15:52;;;;;;;4.25;3.17;;;21.00;99.90;;;;;;5072581;28;20377;-81
2022/08/18 01:23:56;;;;;;;6.15;3.45;;;20.90;99.90;;;;;;5074463;28;20054;-80
2022/08/18 01:26:24;;;;;;;3.60;2.88;;;20.90;99.90;;;;;;5057165;28;20021;-81
2022/08/18 01:28:51;;;;;;;3.90;3.00;;;20.90;99.90;;;;;;5056677;28;20111;-82
2022/08/18 01:31:36;;;;;;;3.85;2.95;;;20.90;99.90;;;;;;5073518;28;20029;-82
2022/08/18 01:34:05;;;;;;;3.95;3.20;;;20.80;99.90;;;;;;5056681;28;20035;-82
2022/08/18 01:36:32;;;;;;;3.38;2.95;;;20.80;99.90;;;;;;5057114;28;20028;-82
2022/08/18 01:38:58;;;;;;;6.05;3.10;;;20.80;99.90;;;;;;5056647;28;20036;-81
2022/08/18 01:41:24;;;;;;;3.78;2.95;;;20.80;99.90;;;;;;5074353;28;20056;-80
2022/08/18 01:43:51;;;;;;;4.22;3.20;;;20.80;99.90;;;;;;5072129;28;20058;-80
2022/08/18 01:46:20;;;;;;;4.88;3.30;;;20.80;99.90;;;;;;5056006;28;20035;-80
2022/08/18 01:48:47;;;;;;;7.65;3.63;;;20.80;99.90;;;;;;5055572;28;20020;-83
2022/08/18 01:51:14;;;;;;;6.10;3.28;;;20.80;99.90;;;;;;5073259;28;20029;-78
2022/08/18 01:53:39;;;;;;;4.68;3.22;;;20.80;99.90;;;;;;5055751;28;20025;-79
2022/08/18 01:56:06;;;;;;;7.07;3.38;;;20.80;99.90;;;;;;5035197;28;20036;-79
2022/08/18 01:58:34;;;;;;;5.53;3.38;;;20.80;99.90;;;;;;5036667;28;20036;-80
2022/08/18 02:01:00;;;;;;;3.75;3.15;;;20.90;99.90;;;;;;5066249;28;20030;-79
2022/08/18 02:03:35;;;;;;;4.82;3.42;;;20.80;99.90;;;;;;5076488;28;20024;-79
2022/08/18 02:06:03;;;;;;;3.50;3.05;;;20.80;99.90;;;;;;5093833;28;20027;-79
2022/08/18 02:08:29;;;;;;;4.28;3.13;;;20.70;99.90;;;;;;5076061;28;20034;-79
2022/08/18 02:10:57;;;;;;;4.50;3.40;;;20.70;99.90;;;;;;5091509;28;20044;-79
2022/08/18 02:13:23;;;;;;;3.35;3.00;;;20.80;99.90;;;;;;5093772;28;20042;-80
2022/08/18 02:15:49;;;;;;;4.93;3.45;;;20.70;99.90;;;;;;5075561;28;20029;-81
2022/08/18 02:18:21;;;;;;;4.57;3.50;;;20.70;99.90;;;;;;5070985;28;20028;-79
2022/08/18 02:20:47;;;;;;;4.88;3.00;;;20.70;99.90;;;;;;5056042;28;20032;-82
2022/08/18 02:23:13;;;;;;;5.60;3.30;;;20.70;99.90;;;;;;5055873;28;20568;-81
2022/08/18 02:25:42;;;;;;;4.65;3.33;;;20.80;99.90;;;;;;5056268;28;20472;-80
2022/08/18 02:28:07;;;;;;;3.72;3.33;;;20.70;99.90;;;;;;5055401;28;20115;-79
2022/08/18 02:30:36;;;;;;;5.10;3.55;;;20.70;99.90;;;;;;5055750;28;20119;-79
2022/08/18 02:33:06;;;;;;;5.05;3.42;;;20.70;99.90;;;;;;5055384;28;20025;-80
2022/08/18 02:35:32;;;;;;;5.57;3.55;;;20.70;99.90;;;;;;5056226;28;20028;-80
2022/08/18 02:37:59;;;;;;;4.57;3.65;;;20.80;99.90;;;;;;5055475;28;20060;-80
2022/08/18 02:40:25;;;;;;;6.70;4.13;;;20.80;99.90;;;;;;5061677;28;20531;-81
2022/08/18 02:42:51;;;;;;;4.88;3.53;;;20.80;99.90;;;;;;5082218;28;20028;-81
2022/08/18 02:45:18;;;;;;;4.97;3.58;;;20.80;99.90;;;;;;5055996;28;20032;-80
2022/08/18 02:47:44;;;;;;;4.68;3.75;;;20.80;99.90;;;;;;5072288;28;20103;-83
2022/08/18 02:50:12;;;;;;;6.65;3.88;;;20.70;99.90;;;;;;5055510;28;20083;-80
2022/08/18 02:52:37;;;;;;;4.70;3.47;;;20.70;99.90;;;;;;5073645;28;20035;-80
2022/08/18 02:55:04;;;;;;;5.50;3.63;;;20.70;99.90;;;;;;5066497;28;20028;-80
2022/08/18 02:57:30;;;;;;;4.18;3.42;;;20.70;99.90;;;;;;5074882;28;20465;-80
2022/08/18 02:59:55;;;;;;;5.30;3.80;;;20.70;99.90;;;;;;5074209;28;20086;-80
2022/08/18 03:02:21;;;;;;;4.15;3.50;;;20.70;99.90;;;;;;5091957;28;20446;-80
2022/08/18 03:04:47;;;;;;;5.68;3.60;;;20.70;99.90;;;;;;5093514;28;20472;-82
2022/08/18 03:07:13;;;;;;;5.47;4.03;;;20.70;99.90;;;;;;5079279;28;20025;-80
2022/08/18 03:09:40;;;;;;;6.03;4.00;;;20.70;99.90;;;;;;5055259;28;20031;-80
2022/08/18 03:12:07;;;;;;;5.38;3.70;;;20.70;99.90;;;;;;5072447;28;20037;-80
2022/08/18 03:14:34;;;;;;;3.80;3.00;;;20.70;99.90;;;;;;5080831;28;20055;-80
2022/08/18 03:17:03;;;;;;;6.25;4.28;;;20.70;99.90;;;;;;5075163;28;20024;-81
2022/08/18 03:19:30;;;;;;;5.13;3.40;;;20.70;99.90;;;;;;5093406;28;20028;-80
2022/08/18 03:21:58;;;;;;;3.97;3.50;;;20.70;99.90;;;;;;5092677;28;20042;-80
2022/08/18 03:24:25;;;;;;;4.82;3.60;;;20.60;99.90;;;;;;5090402;28;20021;-80
2022/08/18 03:26:52;;;;;;;8.55;4.93;;;20.70;99.90;;;;;;5058876;28;20040;-81
2022/08/18 03:29:18;;;;;;;5.82;3.78;;;20.60;99.90;;;;;;5076428;28;20027;-81
2022/08/18 03:31:44;;;;;;;5.78;4.32;;;20.60;99.90;;;;;;5077562;28;20029;-81
2022/08/18 03:34:10;;;;;;;6.78;4.18;;;20.60;99.90;;;;;;5090295;28;20026;-81
2022/08/18 03:36:37;;;;;;;4.47;4.00;;;20.60;99.90;;;;;;5066414;28;20043;-81
2022/08/18 03:39:05;;;;;;;5.88;3.63;;;20.60;99.90;;;;;;5096264;28;20081;-81
2022/08/18 03:41:31;;;;;;;7.90;3.72;;;20.60;99.90;;;;;;5078737;28;20068;-81
2022/08/18 03:43:57;;;;;;;5.38;3.95;;;20.60;99.90;;;;;;5094089;28;20028;-82
2022/08/18 03:46:23;;;;;;;5.82;3.70;;;20.60;99.90;;;;;;5082785;28;20076;-80
2022/08/18 03:48:49;;;;;;;6.63;3.97;;;20.60;99.90;;;;;;5095600;28;20062;-82
2022/08/18 03:51:17;;;;;;;5.78;4.00;;;20.60;99.90;;;;;;5095520;28;20059;-81
2022/08/18 03:53:43;;;;;;;4.70;3.80;;;20.60;99.90;;;;;;5078457;28;20078;-81
2022/08/18 03:56:16;;;;;;;4.85;3.90;;;20.60;99.90;;;;;;5058137;28;20047;-81
2022/08/18 03:58:51;;;;;;;3.65;3.28;;;20.60;99.90;;;;;;5065342;28;20032;-82
2022/08/18 04:01:21;;;;;;;5.75;4.25;;;20.60;99.90;;;;;;5071528;28;20042;-80
2022/08/18 04:03:50;;;;;;;6.53;3.80;;;20.60;99.90;;;;;;5061278;28;20027;-83
2022/08/18 04:06:26;;;;;;;6.13;3.72;;;20.60;99.90;;;;;;5072816;28;20028;-81
2022/08/18 04:08:57;;;;;;;5.38;3.83;;;20.70;99.90;;;;;;5067261;28;20024;-80
2022/08/18 04:11:23;;;;;;;4.70;4.00;;;20.70;99.90;;;;;;5063618;28;20055;-80
2022/08/18 04:13:49;;;;;;;5.95;3.88;;;20.60;99.90;;;;;;5058816;28;20039;-83
2022/08/18 04:16:16;;;;;;;7.72;4.03;;;20.60;99.90;;;;;;5073016;28;20029;-80
2022/08/18 04:18:41;;;;;;;4.00;3.58;;;20.70;99.90;;;;;;5066446;28;20491;-79
2022/08/18 04:21:12;;;;;;;6.53;3.60;;;20.70;99.90;;;;;;5094570;28;20020;-79
2022/08/18 04:23:38;;;;;;;3.53;3.17;;;20.70;99.90;;;;;;5078559;28;20519;-79
2022/08/18 04:26:06;;;;;;;5.78;3.35;;;20.70;99.90;;;;;;5060705;28;20114;-79
2022/08/18 04:28:32;;;;;;;4.35;3.90;;;20.70;99.90;;;;;;5070622;28;20470;-79
2022/08/18 04:30:58;;;;;;;4.25;3.30;;;20.70;99.90;;;;;;5067557;28;20081;-79
2022/08/18 04:33:25;;;;;;;5.63;3.83;;;20.70;99.90;;;;;;5079641;28;20051;-79
2022/08/18 04:35:52;;;;;;;4.72;3.60;;;20.70;99.90;;;;;;5073554;28;20020;-80
2022/08/18 04:38:18;;;;;;;6.22;3.88;;;20.70;99.90;;;;;;5057488;28;20025;-79
2022/08/18 04:40:44;;;;;;;5.30;3.65;;;20.60;99.90;;;;;;5065925;28;20060;-79
2022/08/18 04:43:14;;;;;;;4.53;3.53;;;20.70;99.90;;;;;;5093856;28;20055;-79
2022/08/18 04:45:40;;;;;;;5.15;4.13;;;20.60;99.90;;;;;;5060869;28;20107;-80
2022/08/18 04:48:06;;;;;;;5.85;3.80;;;20.60;99.90;;;;;;5060809;28;20020;-82
2022/08/18 04:50:32;;;;;;;8.82;7.55;;;20.60;99.90;;;;;;5086595;28;20036;-79
2022/08/18 04:55:53;;;;;;;7.32;3.67;;;20.60;99.90;;;;;;5091998;28;20043;-79
2022/08/18 04:58:23;;;;;;;4.85;3.60;;;20.60;99.90;;;;;;5063038;28;20027;-81
2022/08/18 05:01:00;;;;;;;5.47;3.55;;;20.60;99.90;;;;;;5075231;28;20024;-82
2022/08/18 05:03:26;;;;;;;6.05;3.63;;;20.60;99.90;;;;;;5072451;28;20059;-81
2022/08/18 05:05:59;;;;;;;7.07;3.70;;;20.60;99.90;;;;;;5077180;28;20028;-82
2022/08/18 05:08:26;;;;;;;7.53;3.70;;;20.70;99.90;;;;;;5094523;28;20031;-80
2022/08/18 05:10:58;;;;;;;5.10;3.67;;;20.60;99.90;;;;;;5093291;28;20182;-80
2022/08/18 05:13:25;;;;;;;6.68;3.80;;;20.60;99.90;;;;;;5080646;28;20024;-78
2022/08/18 05:16:02;;;;;;;5.63;3.85;;;20.60;99.90;;;;;;5057022;28;20062;-80
2022/08/18 05:18:32;;;;;;;3.83;3.40;;;20.70;99.90;;;;;;5057381;28;20031;-79
2022/08/18 05:20:59;;;;;;;6.35;3.67;;;20.60;99.90;;;;;;5056430;28;20119;-80
2022/08/18 05:23:25;;;;;;;4.60;3.53;;;20.60;99.90;;;;;;5074724;28;20027;-79
2022/08/18 05:26:02;;;;;;;5.80;3.72;;;20.60;99.90;;;;;;5056393;28;20027;-80
2022/08/18 05:28:28;;;;;;;6.38;3.70;;;20.60;99.90;;;;;;5057219;28;20033;-80
2022/08/18 05:30:55;;;;;;;5.70;3.80;;;20.60;99.90;;;;;;5036304;28;20036;-81
2022/08/18 05:33:21;;;;;;;11.80;3.88;;;20.60;99.90;;;;;;5036987;28;20056;-80
2022/08/18 05:35:50;;;;;;;4.75;3.55;;;20.60;99.90;;;;;;5039225;28;20032;-80
2022/08/18 05:38:56;;;;;;;4.32;3.72;;;20.60;99.90;;;;;;5072160;28;20020;-81
2022/08/18 05:41:30;;;;;;;5.75;3.78;;;20.50;99.90;;;;;;5056287;28;20057;-80
2022/08/18 05:43:56;;;;;;;6.90;3.55;;;20.50;99.90;;;;;;5058575;28;20029;-80
2022/08/18 05:46:42;;;;;;;6.47;3.78;;;20.50;99.90;;;;;;5075918;28;20028;-78
2022/08/18 05:49:09;;;;;;;8.48;4.07;;;20.50;99.90;;;;;;5063424;28;20028;-79
2022/08/18 05:51:49;;;;;;;5.30;4.03;;;20.60;99.90;;;;;;5056463;28;20044;-79
2022/08/18 05:57:22;;;;;;;6.80;3.58;;;20.60;99.90;;;;;;5054087;28;20040;-79
2022/08/18 05:59:52;;;;;;;4.90;3.80;;;20.60;99.90;;;;;;5048318;28;20020;-79
2022/08/18 06:02:37;;;;;;;4.78;3.95;;;20.60;99.90;;;;;;5070890;28;20024;-79
2022/08/18 06:05:10;;;;;;;4.75;3.63;;;20.70;99.90;;;;;;5055896;28;20350;-78
2022/08/18 06:07:45;;;;;;;5.85;3.85;;;20.70;99.90;;;;;;5073992;28;20461;-78
2022/08/18 06:10:13;;;;;;;4.20;3.53;;;20.60;99.90;;;;;;5073601;28;20048;-79
2022/08/18 06:12:40;;;;;;;5.45;3.72;;;20.60;99.90;;;;;;5056085;28;20488;-79
2022/08/18 06:15:34;;;;;;;5.03;3.67;;;20.70;99.90;;;;;;5055125;28;20052;-80
2022/08/18 06:18:31;;;;;;;5.38;3.95;;;20.60;99.90;;;;;;5074708;28;20024;-81
2022/08/18 06:21:04;;;;;;;6.22;4.43;;;20.70;99.90;;;;;;5093453;28;20032;-80
2022/08/18 06:24:10;;;;;;;4.90;3.90;;;20.60;99.90;;;;;;5060674;28;20029;-80
2022/08/18 06:26:49;;;;;;;5.68;4.05;;;20.60;99.90;;;;;;5063720;28;20070;-78
2022/08/18 06:29:15;;;;;;;6.28;4.28;;;20.60;99.90;;;;;;5061566;28;20032;-80
2022/08/18 06:32:18;;;;;;;6.03;4.28;;;20.60;99.90;;;;;;5071237;28;20047;-77
2022/08/18 06:35:02;;;;;;;7.60;4.13;;;20.60;99.90;;;;;;5056652;28;20135;-78
2022/08/18 06:40:58;;;;;;;;;;;20.60;99.90;;;;;;5067822;28;20149;-82
2022/08/18 06:43:25;;;;;;;6.68;3.50;;;20.70;99.90;;;;;;5085457;28;19941;-80
2022/08/18 06:45:51;;;;;;;4.57;3.95;;;20.80;99.90;;;;;;5064051;28;20028;-80
2022/08/18 06:48:17;;;;;;;8.32;4.30;;;20.80;99.90;;;;;;5059420;28;20021;-79
2022/08/18 06:50:59;;;;;;;4.70;4.20;;;20.90;99.90;;;;;;5063622;28;20032;-78
2022/08/18 06:53:44;;;;;;;;;;;20.90;99.90;;;;;;5058680;28;20024;-78
2022/08/18 06:56:34;;;;;;;6.88;4.50;;;20.90;99.90;;;;;;5075273;28;19911;-80
2022/08/18 06:59:29;;;;;;;6.82;4.32;;;20.90;99.90;;;;;;5067532;28;20021;-82
2022/08/18 07:02:18;;;;;;;13.20;4.80;;;21.10;99.90;;;;;;5063395;28;20040;-82
2022/08/18 07:05:27;;;;;;;8.95;5.32;;;21.00;99.90;;;;;;5059398;28;20033;-80
2022/08/18 07:08:27;;;;;;;12.05;5.75;;;21.00;99.90;;;;;;5068840;28;20028;-81
2022/08/18 07:10:53;;;;;;;9.43;5.57;;;21.00;99.90;;;;;;5078399;28;20043;-81
2022/08/18 07:13:27;;;;;;;15.82;7.93;;;20.90;99.90;;;;;;5095881;28;20058;-81
2022/08/18 07:15:55;;;;;;;10.88;7.00;;;20.90;99.90;;;;;;5076806;28;20115;-80
2022/08/18 07:18:26;;;;;;;12.48;8.45;;;20.90;99.90;;;;;;5064794;28;20436;-79
2022/08/18 07:21:00;;;;;;;10.48;7.20;;;20.90;99.90;;;;;;5095792;28;20028;-80
2022/08/18 07:23:32;;;;;;;9.65;6.47;;;20.80;99.90;;;;;;5078636;28;20453;-79
2022/08/18 07:26:18;;;;;;;10.15;6.32;;;20.90;99.90;;;;;;5078222;28;20024;-79
2022/08/18 07:28:49;;;;;;;12.55;7.38;;;20.90;99.90;;;;;;5094213;28;20062;-81
2022/08/18 07:31:37;;;;;;;9.15;6.45;;;20.90;99.90;;;;;;5058672;28;20478;-82
2022/08/18 07:34:44;;;;;;;10.27;6.13;;;20.90;99.90;;;;;;5061312;28;20024;-83
2022/08/18 07:37:21;;;;;;;13.25;6.13;;;20.90;99.90;;;;;;5038070;28;20040;-81
2022/08/18 07:39:58;;;;;;;7.10;4.80;;;20.80;99.90;;;;;;5062782;28;20138;-82
2022/08/18 07:42:47;;;;;;;14.82;5.85;;;20.80;99.90;;;;;;5078559;28;20043;-82
2022/08/18 07:45:45;;;;;;;8.60;5.05;;;20.70;99.90;;;;;;5054462;28;20028;-81
2022/08/18 07:48:15;;;;;;;6.53;4.75;;;20.80;99.90;;;;;;5044146;28;20036;-84
2022/08/18 07:51:00;;;;;;;5.32;4.18;;;20.70;99.90;;;;;;5072984;28;20036;-80
2022/08/18 07:53:37;;;;;;;7.35;4.50;;;20.70;99.90;;;;;;5077027;28;20035;-80
2022/08/18 07:56:13;;;;;;;7.60;4.80;;;20.60;99.90;;;;;;5062181;28;20029;-81
2022/08/18 07:58:54;;;;;;;6.20;4.47;;;20.60;99.90;;;;;;5050268;28;20093;-80
2022/08/18 08:01:29;;;;;;;6.88;4.68;;;20.70;99.90;;;;;;5067851;28;20392;-80
2022/08/18 08:04:14;;;;;;;9.45;6.10;;;20.80;99.90;;;;;;5081219;28;20028;-80
2022/08/18 08:06:50;;;;;;;11.32;5.85;;;20.80;99.90;;;;;;5056174;28;20377;-81
2022/08/18 08:09:29;;;;;;;10.45;6.50;;;20.80;99.90;;;;;;5056936;28;21171;-80
2022/08/18 08:12:36;;;;;;;8.35;5.15;;;20.70;99.90;;;;;;5056204;28;20638;-79
2022/08/18 08:15:20;;;;;;;8.07;5.35;;;20.70;99.90;;;;;;5075032;28;20121;-79
2022/08/18 08:17:53;;;;;;;8.38;5.38;;;20.60;99.90;;;;;;5060386;28;20025;-79
2022/08/18 08:20:38;;;;;;;8.13;4.70;;;20.60;99.90;;;;;;5056773;28;20488;-81
2022/08/18 08:23:45;;;;;;;6.20;4.30;;;20.60;99.90;;;;;;5070282;28;20024;-82
2022/08/18 08:26:22;;;;;;;7.78;4.47;;;20.60;99.90;;;;;;5073201;28;20055;-82
2022/08/18 08:28:54;;;;;;;7.30;4.50;;;20.60;99.90;;;;;;5063855;28;20081;-77
2022/08/18 08:31:28;;;;;;;7.13;4.32;;;20.60;99.90;;;;;;5067762;28;20068;-77
2022/08/18 08:34:06;;;;;;;5.50;4.00;;;20.70;99.90;;;;;;5089969;28;20035;-80
2022/08/18 08:36:37;;;;;;;8.02;5.03;;;20.70;99.90;;;;;;5059817;28;20462;-82
2022/08/18 08:39:11;;;;;;;8.10;4.20;;;20.70;99.90;;;;;;5065195;28;20173;-82
2022/08/18 08:41:44;;;;;;;6.30;3.70;;;20.80;99.90;;;;;;5096579;28;20056;-81
2022/08/18 08:44:39;;;;;;;8.23;4.43;;;20.90;99.90;;;;;;5060891;28;20032;-83
2022/08/18 08:47:27;;;;;;;6.63;4.00;;;20.90;99.90;;;;;;5061563;28;20401;-81
2022/08/18 08:50:12;;;;;;;6.40;4.18;;;21.00;99.90;;;;;;5071925;28;20024;-82
2022/08/18 08:52:54;;;;;;;6.35;4.30;;;21.20;99.90;;;;;;5073529;28;20063;-81
2022/08/18 08:55:34;;;;;;;8.27;4.72;;;21.30;99.90;;;;;;5066836;28;20047;-81
2022/08/18 08:58:18;;;;;;;7.35;4.95;;;21.40;99.90;;;;;;5076676;28;20122;-81
2022/08/18 09:00:46;;;;;;;10.30;4.95;;;21.40;99.90;;;;;;5064888;28;20035;-80
2022/08/18 09:03:30;;;;;;;7.03;5.05;;;21.50;99.90;;;;;;5086311;28;20029;-82
2022/08/18 09:06:08;;;;;;;8.60;5.03;;;21.50;99.90;;;;;;5071880;28;20034;-81
2022/08/18 09:09:07;;;;;;;5.53;4.40;;;21.60;99.90;;;;;;5057443;28;20028;-86
2022/08/18 09:11:41;;;;;;;7.95;4.75;;;21.60;99.90;;;;;;5061013;28;20115;-81
2022/08/18 09:14:34;;;;;;;8.88;4.97;;;21.60;99.90;;;;;;5068513;28;20024;-81
2022/08/18 09:17:34;;;;;;;7.40;4.93;;;21.70;99.90;;;;;;5062316;28;20489;-81
2022/08/18 09:20:25;;;;;;;8.95;5.57;;;21.80;99.90;;;;;;5074090;28;20025;-80
2022/08/18 09:22:59;;;;;;;8.50;5.50;;;21.90;99.90;;;;;;5071021;28;20080;-84
2022/08/18 09:25:47;;;;;;;6.47;4.80;;;21.80;99.90;;;;;;5073183;28;20209;-79
2022/08/18 09:28:20;;;;;;;7.82;5.55;;;21.70;99.90;;;;;;5081214;28;20239;-80
2022/08/18 09:30:51;;;;;;;7.28;5.30;;;21.70;99.90;;;;;;5057028;28;20032;-79
2022/08/18 09:33:23;;;;;;;7.30;5.43;;;21.70;99.90;;;;;;5057279;28;20101;-79
2022/08/18 09:36:26;;;;;;;9.73;5.60;;;21.80;99.90;;;;;;5060263;28;20090;-79
2022/08/18 09:42:14;;;;;;;6.18;5.28;;;21.80;99.90;;;;;;5072884;28;20124;-78
2022/08/18 09:44:40;;;;;;;9.77;5.95;;;21.90;99.90;;;;;;5072780;28;20027;-78
2022/08/18 09:47:07;;;;;;;9.45;6.40;;;21.90;99.90;;;;;;5058382;28;20464;-79
2022/08/18 09:49:42;;;;;;;8.07;6.60;;;21.90;99.90;;;;;;5056313;28;20016;-79
2022/08/18 09:52:20;;;;;;;9.48;6.38;;;22.00;99.90;;;;;;5036476;28;20033;-79
2022/08/18 09:54:58;;;;;;;9.43;6.40;;;21.90;99.90;;;;;;5051671;28;20085;-82
2022/08/18 09:57:23;;;;;;;8.90;6.35;;;22.00;99.90;;;;;;5067947;28;20115;-82
2022/08/18 09:59:52;;;;;;;9.32;6.78;;;22.10;99.90;;;;;;5058202;28;20059;-82
2022/08/18 10:02:30;;;;;;;9.65;7.05;;;22.20;99.90;;;;;;5056928;28;20025;-81
2022/08/18 10:05:15;;;;;;;11.05;7.03;;;22.20;99.90;;;;;;5056649;28;20111;-79
2022/08/18 10:08:07;;;;;;;14.18;8.50;;;22.30;99.90;;;;;;5058319;28;20031;-81
2022/08/18 10:10:51;;;;;;;10.35;7.80;;;22.30;99.90;;;;;;5076920;28;20024;-82
2022/08/18 10:13:32;;;;;;;10.18;7.38;;;22.30;99.90;;;;;;5067814;28;20448;-82
2022/08/18 10:16:16;;;;;;;10.43;7.95;;;22.30;99.90;;;;;;5090591;28;20480;-82
2022/08/18 10:19:20;;;;;;;10.48;7.60;;;22.30;99.90;;;;;;5046419;28;20032;-82
2022/08/18 10:21:57;;;;;;;11.93;7.78;;;22.20;99.90;;;;;;5030471;28;20086;-78
2022/08/18 10:24:31;;;;;;;12.20;8.20;;;22.30;99.90;;;;;;5074076;28;20024;-78
2022/08/18 10:26:58;;;;;;;11.88;8.70;;;22.30;99.90;;;;;;5075375;28;20034;-80
2022/08/18 10:29:24;;;;;;;13.60;8.38;;;22.40;99.90;;;;;;5065348;28;20059;-78
2022/08/18 10:31:57;;;;;;;14.20;8.23;;;22.50;99.90;;;;;;5055227;28;20037;-78
2022/08/18 10:34:56;;;;;;;13.20;9.05;;;22.60;99.90;;;;;;5091913;28;20020;-78
2022/08/18 10:37:27;;;;;;;11.60;8.45;;;22.60;99.90;;;;;;5032200;28;20465;-79
2022/08/18 10:40:22;;;;;;;12.82;8.65;;;22.60;99.90;;;;;;5067177;28;20056;-79
2022/08/18 10:43:18;;;;;;;12.02;9.07;;;22.80;99.90;;;;;;5054379;28;20049;-78
2022/08/18 10:45:50;;;;;;;14.68;9.75;;;22.90;99.90;;;;;;5071572;28;20048;-79
2022/08/18 10:48:16;;;;;;;12.15;9.57;;;23.10;99.90;;;;;;5073110;28;20009;-83
2022/08/18 10:50:48;;;;;;;15.25;9.95;;;23.20;99.90;;;;;;5060120;28;20032;-83
2022/08/18 10:53:23;;;;;;;12.25;8.95;;;23.40;99.90;;;;;;5075592;28;20024;-82
2022/08/18 10:55:55;;;;;;;15.38;9.80;;;23.60;99.90;;;;;;5062267;28;20036;-82
2022/08/18 10:58:33;;;;;;;15.95;9.77;;;23.60;99.90;;;;;;5056839;28;20021;-82
2022/08/18 11:01:07;;;;;;;13.18;9.75;;;23.60;99.90;;;;;;5091395;28;20439;-84
2022/08/18 11:04:04;;;;;;;19.20;11.15;;;23.60;99.90;;;;;;5075575;28;20035;-81
2022/08/18 11:06:40;;;;;;;17.08;10.73;;;23.60;99.90;;;;;;5056726;28;20025;-82
2022/08/18 11:09:08;;;;;;;15.73;10.60;;;23.60;99.90;;;;;;5061233;28;20035;-82
2022/08/18 11:11:43;;;;;;;16.40;11.00;;;23.70;99.90;;;;;;5066976;28;20054;-82
2022/08/18 11:14:27;;;;;;;15.38;10.75;;;23.90;99.90;;;;;;5075338;28;20037;-82
2022/08/18 11:17:11;;;;;;;16.55;11.63;;;24.00;99.90;;;;;;5075620;28;20111;-82
2022/08/18 11:19:39;;;;;;;16.13;11.10;;;24.10;99.90;;;;;;5075075;28;20032;-83
2022/08/18 11:22:05;;;;;;;14.15;10.77;;;24.10;99.90;;;;;;5058575;28;20056;-83
2022/08/18 11:24:34;;;;;;;15.35;11.10;;;24.30;99.90;;;;;;5070892;28;20039;-78
2022/08/18 11:27:17;;;;;;;17.75;10.88;;;24.20;99.90;;;;;;5054158;28;20031;-81
2022/08/18 11:29:44;;;;;;;19.15;11.27;;;24.10;99.90;;;;;;5068394;28;20032;-82
2022/08/18 11:32:33;;;;;;;16.35;11.60;;;24.20;99.90;;;;;;5074674;28;20032;-78
2022/08/18 11:35:18;;;;;;;18.25;12.48;;;24.30;99.90;;;;;;5054648;28;20437;-80
2022/08/18 11:37:54;;;;;;;19.25;11.98;;;24.40;99.90;;;;;;5054827;28;20029;-78
2022/08/18 11:40:26;;;;;;;17.45;11.80;;;24.60;99.90;;;;;;5072539;28;20048;-78
2022/08/18 11:43:01;;;;;;;15.20;11.80;;;24.70;99.90;;;;;;5058988;28;20395;-77
2022/08/18 11:45:33;;;;;;;17.17;11.18;;;24.70;99.90;;;;;;5086106;28;20422;-77
2022/08/18 11:48:20;;;;;;;15.57;11.52;;;24.80;99.90;;;;;;5061095;28;20484;-85
2022/08/18 11:51:00;;;;;;;15.18;10.80;;;25.00;99.90;;;;;;5058969;28;20029;-76
2022/08/18 11:53:31;;;;;;;14.75;11.57;;;25.10;99.90;;;;;;5075038;28;20503;-75
2022/08/18 11:56:12;;;;;;;16.73;12.02;;;25.20;99.50;;;;;;5075326;28;20096;-77
2022/08/18 11:59:03;;;;;;;14.65;11.00;;;25.20;99.20;;;;;;5061253;28;20020;-75
2022/08/18 12:01:34;;;;;;;15.60;10.90;;;25.30;99.40;;;;;;5093120;28;20044;-76
2022/08/18 12:04:12;;;;;;;14.23;10.60;;;25.30;99.40;;;;;;5061546;28;20367;-77
2022/08/18 12:07:07;;;;;;;14.80;10.70;;;25.40;99.50;;;;;;5044670;28;20024;-76
2022/08/18 12:09:39;;;;;;;15.77;10.88;;;25.40;99.40;;;;;;5079408;28;20029;-75
2022/08/18 12:12:23;;;;;;;15.27;11.55;;;25.30;99.50;;;;;;5056680;28;20122;-76
2022/08/18 12:15:19;;;;;;;14.90;11.45;;;25.30;99.40;;;;;;5048176;28;20024;-75
2022/08/18 12:17:46;;;;;;;18.23;11.73;;;25.30;99.40;;;;;;5081790;28;20040;-78
2022/08/18 12:20:14;;;;;;;17.13;11.90;;;25.30;99.50;;;;;;5077512;28;20036;-78
2022/08/18 12:22:43;;;;;;;14.30;10.98;;;25.30;99.40;;;;;;5072482;28;20024;-76
2022/08/18 12:25:12;;;;;;;16.10;11.35;;;25.40;99.40;;;;;;5056193;28;20031;-76
2022/08/18 12:27:38;;;;;;;34.90;19.30;;;25.60;99.40;;;;;;5058338;28;20543;-76
2022/08/18 12:30:06;;;;;;;183.30;113.55;;;25.60;99.00;;;;;;5074257;28;20417;-76
2022/08/18 12:32:33;;;;;;;27.45;19.30;;;25.70;98.70;;;;;;5076459;28;20493;-77
2022/08/18 12:34:59;;;;;;;21.52;15.40;;;25.70;98.30;;;;;;5067314;28;20444;-77
2022/08/18 12:37:26;;;;;;;17.75;11.73;;;25.80;98.20;;;;;;5057296;28;20385;-77
2022/08/18 12:39:54;;;;;;;16.08;11.88;;;25.80;98.00;;;;;;5083073;28;20074;-77
2022/08/18 12:42:20;;;;;;;17.75;11.38;;;26.00;97.70;;;;;;5077149;28;20609;-78
2022/08/18 12:44:47;;;;;;;14.75;11.40;;;26.20;97.40;;;;;;5077115;28;20071;-78
2022/08/18 12:47:22;;;;;;;13.60;10.13;;;26.40;97.50;;;;;;5076999;28;20028;-78
2022/08/18 12:49:47;;;;;;;16.20;11.07;;;26.60;97.00;;;;;;5077635;28;20024;-79
2022/08/18 12:52:14;;;;;;;17.17;10.95;;;26.70;96.50;;;;;;5094885;28;20028;-78
2022/08/18 12:54:42;;;;;;;14.38;10.70;;;26.50;95.90;;;;;;5090630;28;20040;-79
2022/08/18 12:57:19;;;;;;;13.80;10.07;;;26.50;95.90;;;;;;5056228;28;20117;-79
2022/08/18 12:59:45;;;;;;;12.38;9.02;;;26.50;95.80;;;;;;5087699;28;20103;-77
2022/08/18 13:02:11;;;;;;;13.68;9.23;;;26.60;95.60;;;;;;5076308;28;20128;-79
2022/08/18 13:04:37;;;;;;;11.95;8.82;;;26.70;95.60;;;;;;5056878;28;20021;-76
2022/08/18 13:07:04;;;;;;;10.90;8.63;;;26.80;95.10;;;;;;5063427;28;20028;-80
2022/08/18 13:09:31;;;;;;;11.77;8.73;;;26.90;94.90;;;;;;5070695;28;20027;-76
2022/08/18 13:11:57;;;;;;;13.55;9.20;;;27.10;94.50;;;;;;5056312;28;20051;-76
2022/08/18 13:14:22;;;;;;;11.90;8.82;;;27.30;93.90;;;;;;5055698;28;20047;-76
2022/08/18 13:16:48;;;;;;;9.70;7.75;;;27.50;93.60;;;;;;5079377;28;20070;-75
2022/08/18 13:19:14;;;;;;;12.20;7.90;;;27.70;93.20;;;;;;5092405;28;20031;-76
2022/08/18 13:21:40;;;;;;;10.07;8.10;;;27.80;92.30;;;;;;5092911;28;20032;-76
2022/08/18 13:24:07;;;;;;;10.88;7.55;;;27.90;92.10;;;;;;5093715;28;20020;-77
2022/08/18 13:26:41;;;;;;;10.07;7.38;;;28.10;91.80;;;;;;5093722;28;20438;-76
2022/08/18 13:29:08;;;;;;;9.75;7.50;;;28.40;90.90;;;;;;5067670;28;20028;-76
2022/08/18 13:31:34;;;;;;;8.30;7.20;;;28.90;90.40;;;;;;5085319;28;20032;-76
2022/08/18 13:34:00;;;;;;;11.82;7.40;;;29.30;88.70;;;;;;5090781;28;20365;-77